sensor_id;sensor_type;location;lat;lon;timestamp;temperature;humidity
21592;DHT22;10958;50.892;3.992;2022-12-07T00:01:40;5.10;99.90
21592;DHT22;10958;50.892;3.992;2022-12-07T00:04:09;5.00;99.90
21592;DHT22;10958;50.892;3.992;2022-12-07T00:06:44;5.00;99.90
21592;DHT22;10958;50.892;3.992;2022-12-07T00:09:13;4.90;99.90
21592;DHT22;10958;50.892;3.992;2022-12-07T00:11:39;4.90;99.90
21592;DHT22;10958;50.892;3.992;2022-12-07T00:14:07;4.90;99.90
21592;DHT22;10958;50.892;3.992;2022-12-07T00:16:37;4.90;99.90
21592;DHT22;10958;50.892;3.992;2022-12-07T00:19:04;5.00;99.90
21592;DHT22;10958;50.892;3.992;2022-12-07T00:21:32;4.90;99.90
21592;DHT22;10958;50.892;3.992;2022-12-07T00:23:59;4.80;99.90
21592;DHT22;10958;50.892;3.992;2022-12-07T00:26:30;4.80;99.90
21592;DHT22;10958;50.892;3.992;2022-12-07T00:29:07;4.70;99.90
21592;DHT22;10958;50.892;3.992;2022-12-07T00:31:36;4.70;99.90
21592;DHT22;10958;50.892;3.992;2022-12-07T00:34:07;4.70;99.90
21592;DHT22;10958;50.892;3.992;2022-12-07T00:36:37;4.80;99.90
21592;DHT22;10958;50.892;3.992;2022-12-07T00:39:03;4.80;99.90
21592;DHT22;10958;50.892;3.992;2022-12-07T00:41:29;4.70;99.90
21592;DHT22;10958;50.892;3.992;2022-12-07T00:43:56;4.70;99.90
21592;DHT22;10958;50.892;3.992;2022-12-07T00:46:23;4.70;99.90
21592;DHT22;10958;50.892;3.992;2022-12-07T00:48:50;4.70;99.90
21592;DHT22;10958;50.892;3.992;2022-12-07T00:51:17;4.70;99.90
21592;DHT22;10958;50.892;3.992;2022-12-07T00:53:44;4.70;99.90
21592;DHT22;10958;50.892;3.992;2022-12-07T00:56:15;4.70;99.90
21592;DHT22;10958;50.892;3.992;2022-12-07T00:58:42;4.60;99.90
21592;DHT22;10958;50.892;3.992;2022-12-07T01:01:11;4.50;99.90
21592;DHT22;10958;50.892;3.992;2022-12-07T01:03:37;4.40;99.90
21592;DHT22;10958;50.892;3.992;2022-12-07T01:06:04;4.40;99.90
21592;DHT22;10958;50.892;3.992;2022-12-07T01:08:29;4.50;99.90
21592;DHT22;10958;50.892;3.992;2022-12-07T01:11:07;4.50;99.90
21592;DHT22;10958;50.892;3.992;2022-12-07T01:13:34;4.40;99.90
21592;DHT22;10958;50.892;3.992;2022-12-07T01:16:02;4.50;99.90
21592;DHT22;10958;50.892;3.992;2022-12-07T01:18:29;4.50;99.90
21592;DHT22;10958;50.892;3.992;2022-12-07T01:21:06;4.50;99.90
21592;DHT22;10958;50.892;3.992;2022-12-07T01:23:35;4.50;99.90
21592;DHT22;10958;50.892;3.992;2022-12-07T01:26:07;4.50;99.90
21592;DHT22;10958;50.892;3.992;2022-12-07T01:28:34;4.70;99.90
21592;DHT22;10958;50.892;3.992;2022-12-07T01:31:05;4.60;99.90
21592;DHT22;10958;50.892;3.992;2022-12-07T01:33:35;4.60;99.90
21592;DHT22;10958;50.892;3.992;2022-12-07T01:38:34;4.60;99.90
21592;DHT22;10958;50.892;3.992;2022-12-07T01:41:01;4.60;99.90
21592;DHT22;10958;50.892;3.992;2022-12-07T01:43:32;4.60;99.90
21592;DHT22;10958;50.892;3.992;2022-12-07T01:45:59;4.60;99.90
21592;DHT22;10958;50.892;3.992;2022-12-07T01:48:29;4.60;99.90
21592;DHT22;10958;50.892;3.992;2022-12-07T01:50:56;4.60;99.90
21592;DHT22;10958;50.892;3.992;2022-12-07T01:53:29;4.60;99.90
21592;DHT22;10958;50.892;3.992;2022-12-07T01:55:55;4.60;99.90
21592;DHT22;10958;50.892;3.992;2022-12-07T01:58:22;4.60;99.90
21592;DHT22;10958;50.892;3.992;2022-12-07T02:00:49;4.50;99.90
21592;DHT22;10958;50.892;3.992;2022-12-07T02:03:19;4.60;99.90
21592;DHT22;10958;50.892;3.992;2022-12-07T02:05:48;4.50;99.90
21592;DHT22;10958;50.892;3.992;2022-12-07T02:08:16;4.50;99.90
21592;DHT22;10958;50.892;3.992;2022-12-07T02:10:42;4.60;99.90
21592;DHT22;10958;50.892;3.992;2022-12-07T02:25:08;4.30;99.90
21592;DHT22;10958;50.892;3.992;2022-12-07T02:30:06;4.70;99.90
21592;DHT22;10958;50.892;3.992;2022-12-07T02:32:39;4.60;99.90
21592;DHT22;10958;50.892;3.992;2022-12-07T02:35:22;4.50;99.90
21592;DHT22;10958;50.892;3.992;2022-12-07T02:40:53;4.40;99.90
21592;DHT22;10958;50.892;3.992;2022-12-07T02:43:26;4.50;99.90
21592;DHT22;10958;50.892;3.992;2022-12-07T02:45:57;4.50;99.90
21592;DHT22;10958;50.892;3.992;2022-12-07T02:48:30;4.40;99.90
21592;DHT22;10958;50.892;3.992;2022-12-07T02:50:59;4.30;99.90
21592;DHT22;10958;50.892;3.992;2022-12-07T02:53:33;4.20;99.90
21592;DHT22;10958;50.892;3.992;2022-12-07T02:56:08;4.20;99.90
21592;DHT22;10958;50.892;3.992;2022-12-07T02:58:57;4.20;99.90
21592;DHT22;10958;50.892;3.992;2022-12-07T03:08:48;4.10;99.90
21592;DHT22;10958;50.892;3.992;2022-12-07T03:11:00;4.10;99.90
21592;DHT22;10958;50.892;3.992;2022-12-07T03:19:05;3.90;99.90
21592;DHT22;10958;50.892;3.992;2022-12-07T03:21:41;3.80;99.90
21592;DHT22;10958;50.892;3.992;2022-12-07T03:24:17;3.80;99.90
21592;DHT22;10958;50.892;3.992;2022-12-07T03:27:01;3.80;99.90
21592;DHT22;10958;50.892;3.992;2022-12-07T03:29:36;3.70;99.90
21592;DHT22;10958;50.892;3.992;2022-12-07T03:32:29;3.70;99.90
21592;DHT22;10958;50.892;3.992;2022-12-07T03:37:33;3.70;99.90
21592;DHT22;10958;50.892;3.992;2022-12-07T03:42:29;3.70;99.90
21592;DHT22;10958;50.892;3.992;2022-12-07T03:44:57;3.60;99.90
21592;DHT22;10958;50.892;3.992;2022-12-07T03:50:21;3.60;99.90
21592;DHT22;10958;50.892;3.992;2022-12-07T03:53:02;3.70;99.90
21592;DHT22;10958;50.892;3.992;2022-12-07T03:55:33;3.80;99.90
21592;DHT22;10958;50.892;3.992;2022-12-07T03:58:10;3.80;99.90
21592;DHT22;10958;50.892;3.992;2022-12-07T04:00:37;3.80;99.90
21592;DHT22;10958;50.892;3.992;2022-12-07T04:03:03;3.80;99.90
21592;DHT22;10958;50.892;3.992;2022-12-07T04:05:29;3.80;99.90
21592;DHT22;10958;50.892;3.992;2022-12-07T04:07:55;3.80;99.90
21592;DHT22;10958;50.892;3.992;2022-12-07T04:10:21;3.80;99.90
21592;DHT22;10958;50.892;3.992;2022-12-07T04:12:47;3.80;99.90
21592;DHT22;10958;50.892;3.992;2022-12-07T04:15:13;3.80;99.90
21592;DHT22;10958;50.892;3.992;2022-12-07T04:17:38;3.80;99.90
21592;DHT22;10958;50.892;3.992;2022-12-07T04:20:16;3.80;99.90
21592;DHT22;10958;50.892;3.992;2022-12-07T04:22:45;3.80;99.90
21592;DHT22;10958;50.892;3.992;2022-12-07T04:25:11;3.90;99.90
21592;DHT22;10958;50.892;3.992;2022-12-07T04:27:37;3.90;99.90
21592;DHT22;10958;50.892;3.992;2022-12-07T04:30:04;3.90;99.90
21592;DHT22;10958;50.892;3.992;2022-12-07T04:32:30;3.80;99.90
21592;DHT22;10958;50.892;3.992;2022-12-07T04:34:56;3.90;99.90
21592;DHT22;10958;50.892;3.992;2022-12-07T04:37:22;3.80;99.90
21592;DHT22;10958;50.892;3.992;2022-12-07T04:39:51;3.70;99.90
21592;DHT22;10958;50.892;3.992;2022-12-07T04:42:18;3.80;99.90
21592;DHT22;10958;50.892;3.992;2022-12-07T04:44:44;3.70;99.90
21592;DHT22;10958;50.892;3.992;2022-12-07T04:47:10;3.70;99.90
21592;DHT22;10958;50.892;3.992;2022-12-07T04:49:38;3.70;99.90
21592;DHT22;10958;50.892;3.992;2022-12-07T04:52:04;3.70;99.90
21592;DHT22;10958;50.892;3.992;2022-12-07T04:54:30;3.70;99.90
21592;DHT22;10958;50.892;3.992;2022-12-07T04:56:56;3.70;99.90
21592;DHT22;10958;50.892;3.992;2022-12-07T04:59:22;3.70;99.90
21592;DHT22;10958;50.892;3.992;2022-12-07T05:01:47;3.70;99.90
21592;DHT22;10958;50.892;3.992;2022-12-07T05:04:13;3.70;99.90
21592;DHT22;10958;50.892;3.992;2022-12-07T05:06:39;3.60;99.90
21592;DHT22;10958;50.892;3.992;2022-12-07T05:09:05;3.60;99.90
21592;DHT22;10958;50.892;3.992;2022-12-07T05:11:33;3.60;99.90
21592;DHT22;10958;50.892;3.992;2022-12-07T05:14:24;3.50;99.90
21592;DHT22;10958;50.892;3.992;2022-12-07T05:16:51;3.50;99.90
21592;DHT22;10958;50.892;3.992;2022-12-07T05:19:18;3.50;99.90
21592;DHT22;10958;50.892;3.992;2022-12-07T05:21:44;3.50;99.90
21592;DHT22;10958;50.892;3.992;2022-12-07T05:24:12;3.50;99.90
21592;DHT22;10958;50.892;3.992;2022-12-07T05:26:38;3.60;99.90
21592;DHT22;10958;50.892;3.992;2022-12-07T05:29:04;3.50;99.90
21592;DHT22;10958;50.892;3.992;2022-12-07T05:31:30;3.60;99.90
21592;DHT22;10958;50.892;3.992;2022-12-07T05:33:56;3.60;99.90
21592;DHT22;10958;50.892;3.992;2022-12-07T05:36:22;3.60;99.90
21592;DHT22;10958;50.892;3.992;2022-12-07T05:38:48;3.60;99.90
21592;DHT22;10958;50.892;3.992;2022-12-07T05:41:18;3.80;99.90
21592;DHT22;10958;50.892;3.992;2022-12-07T05:44:03;3.70;99.90
21592;DHT22;10958;50.892;3.992;2022-12-07T05:46:29;3.80;99.90
21592;DHT22;10958;50.892;3.992;2022-12-07T05:48:55;3.80;99.90
21592;DHT22;10958;50.892;3.992;2022-12-07T05:54:41;3.90;99.90
21592;DHT22;10958;50.892;3.992;2022-12-07T05:57:07;4.00;99.90
21592;DHT22;10958;50.892;3.992;2022-12-07T05:59:33;4.10;99.90
21592;DHT22;10958;50.892;3.992;2022-12-07T06:02:03;4.20;99.90
21592;DHT22;10958;50.892;3.992;2022-12-07T06:04:31;4.20;99.90
21592;DHT22;10958;50.892;3.992;2022-12-07T06:06:58;4.40;99.90
21592;DHT22;10958;50.892;3.992;2022-12-07T06:09:25;4.70;99.90
21592;DHT22;10958;50.892;3.992;2022-12-07T06:11:52;4.80;99.90
21592;DHT22;10958;50.892;3.992;2022-12-07T06:14:37;4.70;99.90
21592;DHT22;10958;50.892;3.992;2022-12-07T06:17:03;4.60;99.90
21592;DHT22;10958;50.892;3.992;2022-12-07T06:19:28;4.40;99.90
21592;DHT22;10958;50.892;3.992;2022-12-07T06:21:54;4.30;99.90
21592;DHT22;10958;50.892;3.992;2022-12-07T06:24:20;4.20;99.90
21592;DHT22;10958;50.892;3.992;2022-12-07T06:26:47;4.10;99.90
21592;DHT22;10958;50.892;3.992;2022-12-07T06:29:13;4.10;99.90
21592;DHT22;10958;50.892;3.992;2022-12-07T06:31:40;4.10;99.90
21592;DHT22;10958;50.892;3.992;2022-12-07T06:34:11;4.10;99.90
21592;DHT22;10958;50.892;3.992;2022-12-07T06:36:37;4.20;99.90
21592;DHT22;10958;50.892;3.992;2022-12-07T06:39:06;4.10;99.90
21592;DHT22;10958;50.892;3.992;2022-12-07T06:41:37;4.20;99.90
21592;DHT22;10958;50.892;3.992;2022-12-07T06:44:04;4.10;99.90
21592;DHT22;10958;50.892;3.992;2022-12-07T06:46:30;4.10;99.90
21592;DHT22;10958;50.892;3.992;2022-12-07T06:48:56;4.00;99.90
21592;DHT22;10958;50.892;3.992;2022-12-07T06:51:22;4.10;99.90
21592;DHT22;10958;50.892;3.992;2022-12-07T06:53:48;4.10;99.90
21592;DHT22;10958;50.892;3.992;2022-12-07T06:56:16;4.10;99.90
21592;DHT22;10958;50.892;3.992;2022-12-07T06:58:42;4.00;99.90
21592;DHT22;10958;50.892;3.992;2022-12-07T07:01:13;4.10;99.90
21592;DHT22;10958;50.892;3.992;2022-12-07T07:03:40;4.30;99.90
21592;DHT22;10958;50.892;3.992;2022-12-07T07:06:06;4.30;99.90
21592;DHT22;10958;50.892;3.992;2022-12-07T07:08:33;4.30;99.90
21592;DHT22;10958;50.892;3.992;2022-12-07T07:11:02;4.30;99.90
21592;DHT22;10958;50.892;3.992;2022-12-07T07:13:28;4.40;99.90
21592;DHT22;10958;50.892;3.992;2022-12-07T07:15:54;4.40;99.90
21592;DHT22;10958;50.892;3.992;2022-12-07T07:18:20;4.40;99.90
21592;DHT22;10958;50.892;3.992;2022-12-07T07:20:57;4.40;99.90
21592;DHT22;10958;50.892;3.992;2022-12-07T07:23:33;4.40;99.90
21592;DHT22;10958;50.892;3.992;2022-12-07T07:26:19;4.30;99.90
21592;DHT22;10958;50.892;3.992;2022-12-07T07:28:45;4.40;99.90
21592;DHT22;10958;50.892;3.992;2022-12-07T07:31:12;4.40;99.90
21592;DHT22;10958;50.892;3.992;2022-12-07T07:33:37;4.40;99.90
21592;DHT22;10958;50.892;3.992;2022-12-07T07:36:03;4.20;99.90
21592;DHT22;10958;50.892;3.992;2022-12-07T07:38:29;4.20;99.90
21592;DHT22;10958;50.892;3.992;2022-12-07T07:40:55;4.20;99.90
21592;DHT22;10958;50.892;3.992;2022-12-07T07:43:21;4.20;99.90
21592;DHT22;10958;50.892;3.992;2022-12-07T07:45:47;4.20;99.90
21592;DHT22;10958;50.892;3.992;2022-12-07T07:48:13;4.30;99.90
21592;DHT22;10958;50.892;3.992;2022-12-07T07:50:39;4.40;99.90
21592;DHT22;10958;50.892;3.992;2022-12-07T07:53:04;4.40;99.90
21592;DHT22;10958;50.892;3.992;2022-12-07T07:55:30;4.50;99.90
21592;DHT22;10958;50.892;3.992;2022-12-07T07:57:56;4.80;99.90
21592;DHT22;10958;50.892;3.992;2022-12-07T08:00:22;4.90;99.90
21592;DHT22;10958;50.892;3.992;2022-12-07T08:02:48;4.80;99.90
21592;DHT22;10958;50.892;3.992;2022-12-07T08:05:16;4.90;99.90
21592;DHT22;10958;50.892;3.992;2022-12-07T08:07:45;5.00;99.90
21592;DHT22;10958;50.892;3.992;2022-12-07T08:10:12;4.90;99.90
21592;DHT22;10958;50.892;3.992;2022-12-07T08:12:40;4.80;99.90
21592;DHT22;10958;50.892;3.992;2022-12-07T08:15:30;4.60;99.90
21592;DHT22;10958;50.892;3.992;2022-12-07T08:17:59;4.40;99.90
21592;DHT22;10958;50.892;3.992;2022-12-07T08:21:03;4.40;99.90
21592;DHT22;10958;50.892;3.992;2022-12-07T08:23:29;4.40;99.90
21592;DHT22;10958;50.892;3.992;2022-12-07T08:26:19;4.50;99.90
21592;DHT22;10958;50.892;3.992;2022-12-07T08:28:49;4.50;99.90
21592;DHT22;10958;50.892;3.992;2022-12-07T08:31:17;4.60;99.90
21592;DHT22;10958;50.892;3.992;2022-12-07T08:33:47;4.90;99.90
21592;DHT22;10958;50.892;3.992;2022-12-07T08:36:25;5.00;99.90
21592;DHT22;10958;50.892;3.992;2022-12-07T08:39:00;5.00;99.90
21592;DHT22;10958;50.892;3.992;2022-12-07T08:41:52;4.90;99.90
21592;DHT22;10958;50.892;3.992;2022-12-07T08:44:21;4.80;99.90
21592;DHT22;10958;50.892;3.992;2022-12-07T08:46:59;4.90;99.90
21592;DHT22;10958;50.892;3.992;2022-12-07T08:49:44;4.80;99.90
21592;DHT22;10958;50.892;3.992;2022-12-07T08:52:11;4.90;99.90
21592;DHT22;10958;50.892;3.992;2022-12-07T08:54:43;4.90;99.90
21592;DHT22;10958;50.892;3.992;2022-12-07T08:57:10;4.80;99.90
21592;DHT22;10958;50.892;3.992;2022-12-07T08:59:52;5.10;99.90
21592;DHT22;10958;50.892;3.992;2022-12-07T09:02:28;5.30;99.90
21592;DHT22;10958;50.892;3.992;2022-12-07T09:05:04;5.30;99.90
21592;DHT22;10958;50.892;3.992;2022-12-07T09:08:04;5.30;99.90
21592;DHT22;10958;50.892;3.992;2022-12-07T09:14:03;5.60;99.90
21592;DHT22;10958;50.892;3.992;2022-12-07T09:16:38;5.80;99.90
21592;DHT22;10958;50.892;3.992;2022-12-07T09:19:12;6.20;99.90
21592;DHT22;10958;50.892;3.992;2022-12-07T09:21:47;6.60;99.90
21592;DHT22;10958;50.892;3.992;2022-12-07T09:24:25;6.90;99.90
21592;DHT22;10958;50.892;3.992;2022-12-07T09:27:01;6.30;99.90
21592;DHT22;10958;50.892;3.992;2022-12-07T09:29:41;6.10;99.90
21592;DHT22;10958;50.892;3.992;2022-12-07T09:35:22;6.00;99.90
21592;DHT22;10958;50.892;3.992;2022-12-07T09:37:51;5.80;99.90
21592;DHT22;10958;50.892;3.992;2022-12-07T09:40:22;5.80;99.90
21592;DHT22;10958;50.892;3.992;2022-12-07T09:42:55;5.90;99.90
21592;DHT22;10958;50.892;3.992;2022-12-07T09:45:37;6.00;99.90
21592;DHT22;10958;50.892;3.992;2022-12-07T09:48:24;6.10;99.90
21592;DHT22;10958;50.892;3.992;2022-12-07T09:57:13;6.20;99.90
21592;DHT22;10958;50.892;3.992;2022-12-07T09:59:45;6.40;99.90
21592;DHT22;10958;50.892;3.992;2022-12-07T10:08:48;6.50;99.90
21592;DHT22;10958;50.892;3.992;2022-12-07T10:13:55;6.20;99.90
21592;DHT22;10958;50.892;3.992;2022-12-07T10:22:16;6.40;99.90
21592;DHT22;10958;50.892;3.992;2022-12-07T10:25:08;6.40;99.90
21592;DHT22;10958;50.892;3.992;2022-12-07T10:27:41;6.40;99.90
21592;DHT22;10958;50.892;3.992;2022-12-07T10:30:16;6.40;99.90
21592;DHT22;10958;50.892;3.992;2022-12-07T10:32:45;6.30;99.90
21592;DHT22;10958;50.892;3.992;2022-12-07T10:41:32;6.10;99.90
21592;DHT22;10958;50.892;3.992;2022-12-07T10:44:00;6.10;99.90
21592;DHT22;10958;50.892;3.992;2022-12-07T10:47:22;6.10;99.90
21592;DHT22;10958;50.892;3.992;2022-12-07T10:50:06;6.10;99.90
21592;DHT22;10958;50.892;3.992;2022-12-07T10:53:13;6.30;99.90
21592;DHT22;10958;50.892;3.992;2022-12-07T11:16:05;7.30;99.90
21592;DHT22;10958;50.892;3.992;2022-12-07T11:19:15;7.60;99.90
21592;DHT22;10958;50.892;3.992;2022-12-07T11:37:49;7.40;99.90
21592;DHT22;10958;50.892;3.992;2022-12-07T11:41:00;7.50;99.90
21592;DHT22;10958;50.892;3.992;2022-12-07T11:43:50;7.50;99.90
21592;DHT22;10958;50.892;3.992;2022-12-07T11:46:27;7.70;99.90
21592;DHT22;10958;50.892;3.992;2022-12-07T11:49:15;7.90;99.90
21592;DHT22;10958;50.892;3.992;2022-12-07T11:51:45;7.60;99.90
21592;DHT22;10958;50.892;3.992;2022-12-07T11:54:35;7.30;99.90
21592;DHT22;10958;50.892;3.992;2022-12-07T11:57:35;7.10;99.90
21592;DHT22;10958;50.892;3.992;2022-12-07T12:00:03;6.90;99.90
21592;DHT22;10958;50.892;3.992;2022-12-07T12:02:47;7.10;99.90
21592;DHT22;10958;50.892;3.992;2022-12-07T12:05:22;7.10;99.90
21592;DHT22;10958;50.892;3.992;2022-12-07T12:08:16;7.00;99.90
21592;DHT22;10958;50.892;3.992;2022-12-07T12:11:20;7.30;99.90
21592;DHT22;10958;50.892;3.992;2022-12-07T12:14:22;7.20;99.90
21592;DHT22;10958;50.892;3.992;2022-12-07T12:20:13;7.10;99.90
21592;DHT22;10958;50.892;3.992;2022-12-07T12:22:45;7.10;99.90
21592;DHT22;10958;50.892;3.992;2022-12-07T12:25:34;7.00;99.90
21592;DHT22;10958;50.892;3.992;2022-12-07T12:31:46;7.10;99.90
21592;DHT22;10958;50.892;3.992;2022-12-07T12:37:39;7.40;99.90
21592;DHT22;10958;50.892;3.992;2022-12-07T12:50:35;7.40;99.90
21592;DHT22;10958;50.892;3.992;2022-12-07T12:53:25;7.50;99.90
21592;DHT22;10958;50.892;3.992;2022-12-07T12:59:56;7.50;99.90
21592;DHT22;10958;50.892;3.992;2022-12-07T13:05:23;7.20;99.90
21592;DHT22;10958;50.892;3.992;2022-12-07T13:08:05;7.00;99.90
21592;DHT22;10958;50.892;3.992;2022-12-07T13:10:40;7.10;99.90
21592;DHT22;10958;50.892;3.992;2022-12-07T13:16:38;7.10;99.90
21592;DHT22;10958;50.892;3.992;2022-12-07T13:18:42;7.10;99.90
21592;DHT22;10958;50.892;3.992;2022-12-07T13:28:52;7.40;99.90
21592;DHT22;10958;50.892;3.992;2022-12-07T13:33:55;7.50;99.90
21592;DHT22;10958;50.892;3.992;2022-12-07T13:36:27;7.50;99.90
21592;DHT22;10958;50.892;3.992;2022-12-07T13:38:58;7.50;99.90
21592;DHT22;10958;50.892;3.992;2022-12-07T13:41:28;7.50;99.90
21592;DHT22;10958;50.892;3.992;2022-12-07T13:44:16;7.80;99.90
21592;DHT22;10958;50.892;3.992;2022-12-07T13:47:11;8.00;99.90
21592;DHT22;10958;50.892;3.992;2022-12-07T13:50:24;8.30;99.90
21592;DHT22;10958;50.892;3.992;2022-12-07T13:52:50;8.50;99.90
21592;DHT22;10958;50.892;3.992;2022-12-07T13:55:20;8.30;99.90
21592;DHT22;10958;50.892;3.992;2022-12-07T13:57:52;8.10;99.90
21592;DHT22;10958;50.892;3.992;2022-12-07T14:00:20;8.00;99.90
21592;DHT22;10958;50.892;3.992;2022-12-07T14:03:03;7.80;99.90
21592;DHT22;10958;50.892;3.992;2022-12-07T14:05:32;7.90;99.90
21592;DHT22;10958;50.892;3.992;2022-12-07T14:08:20;8.10;99.90
21592;DHT22;10958;50.892;3.992;2022-12-07T14:13:45;8.20;99.90
21592;DHT22;10958;50.892;3.992;2022-12-07T14:18:51;8.00;99.90
21592;DHT22;10958;50.892;3.992;2022-12-07T14:21:20;7.90;99.90
21592;DHT22;10958;50.892;3.992;2022-12-07T14:24:11;7.80;99.90
21592;DHT22;10958;50.892;3.992;2022-12-07T14:26:39;7.50;99.90
21592;DHT22;10958;50.892;3.992;2022-12-07T14:31:51;7.40;99.90
21592;DHT22;10958;50.892;3.992;2022-12-07T14:34:22;7.50;99.90
21592;DHT22;10958;50.892;3.992;2022-12-07T14:36:49;7.80;99.90
21592;DHT22;10958;50.892;3.992;2022-12-07T14:39:15;8.00;99.90
21592;DHT22;10958;50.892;3.992;2022-12-07T14:41:40;8.20;99.90
21592;DHT22;10958;50.892;3.992;2022-12-07T14:44:20;8.40;99.90
21592;DHT22;10958;50.892;3.992;2022-12-07T14:46:47;8.50;99.90
21592;DHT22;10958;50.892;3.992;2022-12-07T14:49:16;8.40;99.90
21592;DHT22;10958;50.892;3.992;2022-12-07T14:51:42;8.20;99.90
21592;DHT22;10958;50.892;3.992;2022-12-07T14:54:17;7.90;99.90
21592;DHT22;10958;50.892;3.992;2022-12-07T14:56:43;8.00;99.90
21592;DHT22;10958;50.892;3.992;2022-12-07T14:59:11;7.80;99.90
21592;DHT22;10958;50.892;3.992;2022-12-07T15:01:39;7.60;99.90
21592;DHT22;10958;50.892;3.992;2022-12-07T15:04:05;7.50;99.90
21592;DHT22;10958;50.892;3.992;2022-12-07T15:06:31;7.40;99.90
21592;DHT22;10958;50.892;3.992;2022-12-07T15:08:57;7.40;99.90
21592;DHT22;10958;50.892;3.992;2022-12-07T15:11:24;7.30;99.90
21592;DHT22;10958;50.892;3.992;2022-12-07T15:13:49;7.20;99.90
21592;DHT22;10958;50.892;3.992;2022-12-07T15:16:34;7.10;99.90
21592;DHT22;10958;50.892;3.992;2022-12-07T15:19:00;7.30;99.90
21592;DHT22;10958;50.892;3.992;2022-12-07T15:21:26;7.40;99.90
21592;DHT22;10958;50.892;3.992;2022-12-07T15:23:55;7.30;99.90
21592;DHT22;10958;50.892;3.992;2022-12-07T15:26:21;7.30;99.90
21592;DHT22;10958;50.892;3.992;2022-12-07T15:28:52;7.40;99.90
21592;DHT22;10958;50.892;3.992;2022-12-07T15:31:18;7.30;99.90
21592;DHT22;10958;50.892;3.992;2022-12-07T15:34:14;7.50;99.90
21592;DHT22;10958;50.892;3.992;2022-12-07T15:36:40;7.60;99.90
21592;DHT22;10958;50.892;3.992;2022-12-07T15:39:06;7.50;99.90
21592;DHT22;10958;50.892;3.992;2022-12-07T15:41:35;7.30;99.90
21592;DHT22;10958;50.892;3.992;2022-12-07T15:44:01;7.50;99.90
21592;DHT22;10958;50.892;3.992;2022-12-07T15:46:45;7.40;99.90
21592;DHT22;10958;50.892;3.992;2022-12-07T15:49:16;7.10;99.90
21592;DHT22;10958;50.892;3.992;2022-12-07T15:51:43;7.40;99.90
21592;DHT22;10958;50.892;3.992;2022-12-07T15:54:14;7.60;99.90
21592;DHT22;10958;50.892;3.992;2022-12-07T15:56:41;7.70;99.90
21592;DHT22;10958;50.892;3.992;2022-12-07T15:59:07;7.80;99.90
21592;DHT22;10958;50.892;3.992;2022-12-07T16:01:35;7.60;99.90
21592;DHT22;10958;50.892;3.992;2022-12-07T16:04:11;7.30;99.90
21592;DHT22;10958;50.892;3.992;2022-12-07T16:06:37;7.50;99.90
21592;DHT22;10958;50.892;3.992;2022-12-07T16:09:06;7.50;99.90
21592;DHT22;10958;50.892;3.992;2022-12-07T16:11:32;7.40;99.90
21592;DHT22;10958;50.892;3.992;2022-12-07T16:13:58;7.30;99.90
21592;DHT22;10958;50.892;3.992;2022-12-07T16:16:26;6.90;99.90
21592;DHT22;10958;50.892;3.992;2022-12-07T16:21:57;6.50;99.90
21592;DHT22;10958;50.892;3.992;2022-12-07T16:24:26;6.70;99.90
21592;DHT22;10958;50.892;3.992;2022-12-07T16:26:58;6.90;99.90
21592;DHT22;10958;50.892;3.992;2022-12-07T16:29:24;6.70;99.90
21592;DHT22;10958;50.892;3.992;2022-12-07T16:37:00;6.70;99.90
21592;DHT22;10958;50.892;3.992;2022-12-07T16:39:26;6.80;99.90
21592;DHT22;10958;50.892;3.992;2022-12-07T16:41:54;7.10;99.90
21592;DHT22;10958;50.892;3.992;2022-12-07T16:44:20;7.00;99.90
21592;DHT22;10958;50.892;3.992;2022-12-07T16:46:46;7.20;99.90
21592;DHT22;10958;50.892;3.992;2022-12-07T16:49:16;7.20;99.90
21592;DHT22;10958;50.892;3.992;2022-12-07T16:51:42;6.70;99.90
21592;DHT22;10958;50.892;3.992;2022-12-07T16:54:14;6.30;99.90
21592;DHT22;10958;50.892;3.992;2022-12-07T16:56:39;5.90;99.90
21592;DHT22;10958;50.892;3.992;2022-12-07T16:59:05;5.60;99.90
21592;DHT22;10958;50.892;3.992;2022-12-07T17:01:31;5.60;99.90
21592;DHT22;10958;50.892;3.992;2022-12-07T17:03:57;5.50;99.90
21592;DHT22;10958;50.892;3.992;2022-12-07T17:06:26;5.50;99.90
21592;DHT22;10958;50.892;3.992;2022-12-07T17:08:55;5.70;99.90
21592;DHT22;10958;50.892;3.992;2022-12-07T17:11:26;5.90;99.90
21592;DHT22;10958;50.892;3.992;2022-12-07T17:13:52;5.80;99.90
21592;DHT22;10958;50.892;3.992;2022-12-07T17:16:37;6.00;99.90
21592;DHT22;10958;50.892;3.992;2022-12-07T17:19:04;5.90;99.90
21592;DHT22;10958;50.892;3.992;2022-12-07T17:21:31;5.90;99.90
21592;DHT22;10958;50.892;3.992;2022-12-07T17:23:59;5.80;99.90
21592;DHT22;10958;50.892;3.992;2022-12-07T17:26:26;5.70;99.90
21592;DHT22;10958;50.892;3.992;2022-12-07T17:28:53;5.70;99.90
21592;DHT22;10958;50.892;3.992;2022-12-07T17:31:30;5.70;99.90
21592;DHT22;10958;50.892;3.992;2022-12-07T17:34:10;5.70;99.90
21592;DHT22;10958;50.892;3.992;2022-12-07T17:36:40;5.70;99.90
21592;DHT22;10958;50.892;3.992;2022-12-07T17:45:23;6.00;99.90
21592;DHT22;10958;50.892;3.992;2022-12-07T17:47:49;6.10;99.90
21592;DHT22;10958;50.892;3.992;2022-12-07T17:50:15;6.00;99.90
21592;DHT22;10958;50.892;3.992;2022-12-07T17:52:40;5.80;99.90
21592;DHT22;10958;50.892;3.992;2022-12-07T17:55:24;5.90;99.90
21592;DHT22;10958;50.892;3.992;2022-12-07T17:57:50;5.70;99.90
21592;DHT22;10958;50.892;3.992;2022-12-07T18:00:16;5.50;99.90
21592;DHT22;10958;50.892;3.992;2022-12-07T18:02:43;5.40;99.90
21592;DHT22;10958;50.892;3.992;2022-12-07T18:05:09;5.60;99.90
21592;DHT22;10958;50.892;3.992;2022-12-07T18:07:35;5.90;99.90
21592;DHT22;10958;50.892;3.992;2022-12-07T18:10:03;6.10;99.90
21592;DHT22;10958;50.892;3.992;2022-12-07T18:12:31;5.70;99.90
21592;DHT22;10958;50.892;3.992;2022-12-07T18:14:57;5.50;99.90
21592;DHT22;10958;50.892;3.992;2022-12-07T18:17:25;5.50;99.90
21592;DHT22;10958;50.892;3.992;2022-12-07T18:19:50;5.20;99.90
21592;DHT22;10958;50.892;3.992;2022-12-07T18:22:16;5.40;99.90
21592;DHT22;10958;50.892;3.992;2022-12-07T18:24:53;5.70;99.90
21592;DHT22;10958;50.892;3.992;2022-12-07T18:27:21;5.70;99.90
21592;DHT22;10958;50.892;3.992;2022-12-07T18:29:47;5.70;99.90
21592;DHT22;10958;50.892;3.992;2022-12-07T18:32:19;5.90;99.90
21592;DHT22;10958;50.892;3.992;2022-12-07T18:34:56;6.00;99.90
21592;DHT22;10958;50.892;3.992;2022-12-07T18:37:25;5.90;99.90
21592;DHT22;10958;50.892;3.992;2022-12-07T18:40:12;5.80;99.90
21592;DHT22;10958;50.892;3.992;2022-12-07T18:46:18;5.70;99.90
21592;DHT22;10958;50.892;3.992;2022-12-07T18:48:50;5.70;99.90
21592;DHT22;10958;50.892;3.992;2022-12-07T18:51:18;5.60;99.90
21592;DHT22;10958;50.892;3.992;2022-12-07T18:53:47;5.50;99.90
21592;DHT22;10958;50.892;3.992;2022-12-07T18:56:20;5.60;99.90
21592;DHT22;10958;50.892;3.992;2022-12-07T18:58:58;5.60;99.90
21592;DHT22;10958;50.892;3.992;2022-12-07T19:01:46;5.60;99.90
21592;DHT22;10958;50.892;3.992;2022-12-07T19:04:13;5.70;99.90
21592;DHT22;10958;50.892;3.992;2022-12-07T19:12:33;5.70;99.90
21592;DHT22;10958;50.892;3.992;2022-12-07T19:14:59;5.50;99.90
21592;DHT22;10958;50.892;3.992;2022-12-07T19:17:25;5.30;99.90
21592;DHT22;10958;50.892;3.992;2022-12-07T19:19:56;5.40;99.90